Terminal Aerodrome Forecast
Issued by NWS Charleston, WV

Current Version | Previous Version | Text Only | Print | Product List | Glossary Off
Versions: 1 2 3 4 5 6 7 8 9 10 11 12 13 14 15 16 17 18 19 20 21 22

000
FTUS41 KRLX 180900 AAA
TAFHTS
TAF AMD
KHTS 180900Z 1809/1906 07007KT P6SM BKN012
     FM181320 07008KT P6SM BKN045
     FM181700 08008G15KT P6SM SHRA VCTS OVC050CB PROB30 1820/1823
      2SM TSRA OVC040CB
     FM182300 17004KT P6SM SHRA OVC050
     FM190000 07004KT P6SM OVC060=

USA.gov is the U.S. government's official web portal to all federal, state and local government web resources and services.